sensor_id;sensor_type;location;lat;lon;timestamp;temperature;humidity
72114;SHT31;59989;46.220;19.888;2023-07-29T00:00:06;19.70;79.83
72114;SHT31;59989;46.220;19.888;2023-07-29T00:03:14;19.64;80.12
72114;SHT31;59989;46.220;19.888;2023-07-29T00:06:17;19.61;79.98
72114;SHT31;59989;46.220;19.888;2023-07-29T00:09:19;19.56;80.10
72114;SHT31;59989;46.220;19.888;2023-07-29T00:12:22;19.50;80.75
72114;SHT31;59989;46.220;19.888;2023-07-29T00:15:24;19.45;81.08
72114;SHT31;59989;46.220;19.888;2023-07-29T00:18:27;19.40;81.18
72114;SHT31;59989;46.220;19.888;2023-07-29T00:21:30;19.36;81.15
72114;SHT31;59989;46.220;19.888;2023-07-29T00:24:32;19.32;81.79
72114;SHT31;59989;46.220;19.888;2023-07-29T00:27:35;19.29;82.37
72114;SHT31;59989;46.220;19.888;2023-07-29T00:30:38;19.24;81.92
72114;SHT31;59989;46.220;19.888;2023-07-29T00:33:40;19.20;81.34
72114;SHT31;59989;46.220;19.888;2023-07-29T00:36:43;19.19;81.70
72114;SHT31;59989;46.220;19.888;2023-07-29T00:39:47;19.18;82.10
72114;SHT31;59989;46.220;19.888;2023-07-29T00:42:49;19.22;82.42
72114;SHT31;59989;46.220;19.888;2023-07-29T00:45:53;19.18;82.31
72114;SHT31;59989;46.220;19.888;2023-07-29T00:48:55;19.13;82.20
72114;SHT31;59989;46.220;19.888;2023-07-29T00:51:59;19.13;81.98
72114;SHT31;59989;46.220;19.888;2023-07-29T00:55:02;19.15;81.86
72114;SHT31;59989;46.220;19.888;2023-07-29T00:58:04;19.15;81.97
72114;SHT31;59989;46.220;19.888;2023-07-29T01:01:07;19.16;82.08
72114;SHT31;59989;46.220;19.888;2023-07-29T01:04:10;19.16;81.42
72114;SHT31;59989;46.220;19.888;2023-07-29T01:13:51;19.20;81.88
72114;SHT31;59989;46.220;19.888;2023-07-29T01:17:07;19.22;81.55
72114;SHT31;59989;46.220;19.888;2023-07-29T01:20:14;19.26;81.89
72114;SHT31;59989;46.220;19.888;2023-07-29T01:23:26;19.29;81.01
72114;SHT31;59989;46.220;19.888;2023-07-29T01:26:31;19.23;81.29
72114;SHT31;59989;46.220;19.888;2023-07-29T01:29:34;19.22;81.33
72114;SHT31;59989;46.220;19.888;2023-07-29T01:32:43;19.19;81.43
72114;SHT31;59989;46.220;19.888;2023-07-29T01:35:52;19.13;82.49
72114;SHT31;59989;46.220;19.888;2023-07-29T01:38:57;19.19;82.08
72114;SHT31;59989;46.220;19.888;2023-07-29T01:42:01;19.19;81.55
72114;SHT31;59989;46.220;19.888;2023-07-29T01:45:04;19.12;82.13
72114;SHT31;59989;46.220;19.888;2023-07-29T01:48:07;19.11;82.46
72114;SHT31;59989;46.220;19.888;2023-07-29T01:51:12;19.33;81.92
72114;SHT31;59989;46.220;19.888;2023-07-29T01:54:14;19.32;81.59
72114;SHT31;59989;46.220;19.888;2023-07-29T01:57:17;19.20;82.31
72114;SHT31;59989;46.220;19.888;2023-07-29T02:00:20;19.08;82.19
72114;SHT31;59989;46.220;19.888;2023-07-29T02:03:23;18.92;82.30
72114;SHT31;59989;46.220;19.888;2023-07-29T02:06:25;18.85;82.64
72114;SHT31;59989;46.220;19.888;2023-07-29T02:09:29;18.75;82.87
72114;SHT31;59989;46.220;19.888;2023-07-29T02:12:33;18.72;84.05
72114;SHT31;59989;46.220;19.888;2023-07-29T02:15:36;18.71;84.23
72114;SHT31;59989;46.220;19.888;2023-07-29T02:18:39;18.68;84.52
72114;SHT31;59989;46.220;19.888;2023-07-29T02:21:42;18.63;84.74
72114;SHT31;59989;46.220;19.888;2023-07-29T02:24:44;18.60;84.92
72114;SHT31;59989;46.220;19.888;2023-07-29T02:27:47;18.54;85.13
72114;SHT31;59989;46.220;19.888;2023-07-29T02:31:09;18.55;85.14
72114;SHT31;59989;46.220;19.888;2023-07-29T02:34:13;18.50;84.98
72114;SHT31;59989;46.220;19.888;2023-07-29T02:37:16;18.45;84.79
72114;SHT31;59989;46.220;19.888;2023-07-29T02:40:19;18.37;84.94
72114;SHT31;59989;46.220;19.888;2023-07-29T02:43:23;18.34;85.49
72114;SHT31;59989;46.220;19.888;2023-07-29T02:46:25;18.29;85.69
72114;SHT31;59989;46.220;19.888;2023-07-29T02:49:28;18.26;85.43
72114;SHT31;59989;46.220;19.888;2023-07-29T02:52:31;18.20;85.28
72114;SHT31;59989;46.220;19.888;2023-07-29T02:55:34;18.18;85.41
72114;SHT31;59989;46.220;19.888;2023-07-29T02:58:37;18.16;85.69
72114;SHT31;59989;46.220;19.888;2023-07-29T03:01:39;18.12;85.83
72114;SHT31;59989;46.220;19.888;2023-07-29T03:04:42;18.09;85.79
72114;SHT31;59989;46.220;19.888;2023-07-29T03:07:44;18.07;86.52
72114;SHT31;59989;46.220;19.888;2023-07-29T03:10:47;18.06;86.51
72114;SHT31;59989;46.220;19.888;2023-07-29T03:13:49;18.05;86.88
72114;SHT31;59989;46.220;19.888;2023-07-29T03:16:52;18.17;86.60
72114;SHT31;59989;46.220;19.888;2023-07-29T03:19:55;18.18;86.46
72114;SHT31;59989;46.220;19.888;2023-07-29T03:22:57;18.26;86.22
72114;SHT31;59989;46.220;19.888;2023-07-29T03:26:01;18.26;86.79
72114;SHT31;59989;46.220;19.888;2023-07-29T03:29:06;18.27;86.75
72114;SHT31;59989;46.220;19.888;2023-07-29T03:32:08;18.29;86.03
72114;SHT31;59989;46.220;19.888;2023-07-29T03:35:11;18.27;86.34
72114;SHT31;59989;46.220;19.888;2023-07-29T03:38:14;18.36;85.71
72114;SHT31;59989;46.220;19.888;2023-07-29T03:41:17;18.37;85.81
72114;SHT31;59989;46.220;19.888;2023-07-29T03:44:20;18.41;85.96
72114;SHT31;59989;46.220;19.888;2023-07-29T03:47:22;18.41;85.88
72114;SHT31;59989;46.220;19.888;2023-07-29T03:50:26;18.47;85.18
72114;SHT31;59989;46.220;19.888;2023-07-29T03:53:29;18.58;85.39
72114;SHT31;59989;46.220;19.888;2023-07-29T03:56:31;18.65;85.38
72114;SHT31;59989;46.220;19.888;2023-07-29T03:59:34;18.71;84.99
72114;SHT31;59989;46.220;19.888;2023-07-29T04:02:37;18.79;84.94
72114;SHT31;59989;46.220;19.888;2023-07-29T04:05:42;18.89;84.18
72114;SHT31;59989;46.220;19.888;2023-07-29T04:08:45;18.94;84.65
72114;SHT31;59989;46.220;19.888;2023-07-29T04:11:48;19.02;83.94
72114;SHT31;59989;46.220;19.888;2023-07-29T04:14:52;19.18;83.27
72114;SHT31;59989;46.220;19.888;2023-07-29T04:17:55;19.32;82.98
72114;SHT31;59989;46.220;19.888;2023-07-29T04:20:57;19.30;82.60
72114;SHT31;59989;46.220;19.888;2023-07-29T04:24:00;19.39;82.93
72114;SHT31;59989;46.220;19.888;2023-07-29T04:27:03;19.42;83.43
72114;SHT31;59989;46.220;19.888;2023-07-29T04:30:06;19.50;82.52
72114;SHT31;59989;46.220;19.888;2023-07-29T04:33:09;19.74;82.23
72114;SHT31;59989;46.220;19.888;2023-07-29T04:36:12;20.05;81.03
72114;SHT31;59989;46.220;19.888;2023-07-29T04:39:18;20.28;80.43
72114;SHT31;59989;46.220;19.888;2023-07-29T04:42:21;20.33;80.22
72114;SHT31;59989;46.220;19.888;2023-07-29T04:45:28;20.42;79.76
72114;SHT31;59989;46.220;19.888;2023-07-29T04:48:30;20.49;79.59
72114;SHT31;59989;46.220;19.888;2023-07-29T04:51:33;20.53;79.31
72114;SHT31;59989;46.220;19.888;2023-07-29T04:54:36;20.50;79.29
72114;SHT31;59989;46.220;19.888;2023-07-29T04:57:38;20.53;79.73
72114;SHT31;59989;46.220;19.888;2023-07-29T05:00:41;20.67;79.34
72114;SHT31;59989;46.220;19.888;2023-07-29T05:03:44;20.80;79.14
72114;SHT31;59989;46.220;19.888;2023-07-29T05:06:47;20.94;78.86
72114;SHT31;59989;46.220;19.888;2023-07-29T05:09:50;21.10;78.39
72114;SHT31;59989;46.220;19.888;2023-07-29T05:12:52;21.21;78.33
72114;SHT31;59989;46.220;19.888;2023-07-29T05:15:55;21.38;77.63
72114;SHT31;59989;46.220;19.888;2023-07-29T05:18:58;21.49;76.84
72114;SHT31;59989;46.220;19.888;2023-07-29T05:22:01;21.65;76.18
72114;SHT31;59989;46.220;19.888;2023-07-29T05:25:04;21.79;76.52
72114;SHT31;59989;46.220;19.888;2023-07-29T05:28:06;22.00;75.60
72114;SHT31;59989;46.220;19.888;2023-07-29T05:31:09;22.16;75.27
72114;SHT31;59989;46.220;19.888;2023-07-29T05:34:12;22.29;74.72
72114;SHT31;59989;46.220;19.888;2023-07-29T05:37:15;22.43;74.78
72114;SHT31;59989;46.220;19.888;2023-07-29T05:40:17;22.54;73.62
72114;SHT31;59989;46.220;19.888;2023-07-29T05:43:20;22.65;73.71
72114;SHT31;59989;46.220;19.888;2023-07-29T05:46:22;22.79;72.68
72114;SHT31;59989;46.220;19.888;2023-07-29T05:49:25;22.98;72.30
72114;SHT31;59989;46.220;19.888;2023-07-29T05:52:27;23.13;71.71
72114;SHT31;59989;46.220;19.888;2023-07-29T05:55:30;23.31;71.64
72114;SHT31;59989;46.220;19.888;2023-07-29T05:58:33;23.47;70.34
72114;SHT31;59989;46.220;19.888;2023-07-29T06:01:35;23.58;70.21
72114;SHT31;59989;46.220;19.888;2023-07-29T06:04:38;23.70;69.11
72114;SHT31;59989;46.220;19.888;2023-07-29T06:07:42;23.87;69.12
72114;SHT31;59989;46.220;19.888;2023-07-29T06:10:47;23.98;68.99
72114;SHT31;59989;46.220;19.888;2023-07-29T06:13:50;24.12;68.74
72114;SHT31;59989;46.220;19.888;2023-07-29T06:16:52;24.26;67.77
72114;SHT31;59989;46.220;19.888;2023-07-29T06:19:55;24.42;67.57
72114;SHT31;59989;46.220;19.888;2023-07-29T06:22:57;24.49;66.56
72114;SHT31;59989;46.220;19.888;2023-07-29T06:26:00;24.77;67.29
72114;SHT31;59989;46.220;19.888;2023-07-29T06:29:05;24.91;66.62
72114;SHT31;59989;46.220;19.888;2023-07-29T06:32:08;25.14;66.14
72114;SHT31;59989;46.220;19.888;2023-07-29T06:35:10;25.41;65.53
72114;SHT31;59989;46.220;19.888;2023-07-29T06:38:13;25.61;64.52
72114;SHT31;59989;46.220;19.888;2023-07-29T06:41:16;25.79;64.25
72114;SHT31;59989;46.220;19.888;2023-07-29T06:44:21;25.99;62.75
72114;SHT31;59989;46.220;19.888;2023-07-29T06:47:24;26.14;62.56
72114;SHT31;59989;46.220;19.888;2023-07-29T06:50:26;26.31;62.58
72114;SHT31;59989;46.220;19.888;2023-07-29T06:53:29;26.47;61.57
72114;SHT31;59989;46.220;19.888;2023-07-29T06:56:36;26.51;61.39
72114;SHT31;59989;46.220;19.888;2023-07-29T06:59:39;26.85;61.31
72114;SHT31;59989;46.220;19.888;2023-07-29T07:02:42;26.85;60.60
72114;SHT31;59989;46.220;19.888;2023-07-29T07:05:45;27.06;60.62
72114;SHT31;59989;46.220;19.888;2023-07-29T07:08:47;27.34;60.09
72114;SHT31;59989;46.220;19.888;2023-07-29T07:11:50;27.60;59.82
72114;SHT31;59989;46.220;19.888;2023-07-29T07:14:52;27.43;60.01
72114;SHT31;59989;46.220;19.888;2023-07-29T07:17:55;27.42;59.77
72114;SHT31;59989;46.220;19.888;2023-07-29T07:20:57;27.72;59.21
72114;SHT31;59989;46.220;19.888;2023-07-29T07:24:00;27.85;58.62
72114;SHT31;59989;46.220;19.888;2023-07-29T07:27:03;27.97;57.06
72114;SHT31;59989;46.220;19.888;2023-07-29T07:30:06;27.90;57.56
72114;SHT31;59989;46.220;19.888;2023-07-29T07:33:09;28.08;58.62
72114;SHT31;59989;46.220;19.888;2023-07-29T07:36:12;28.25;58.07
72114;SHT31;59989;46.220;19.888;2023-07-29T07:39:15;28.69;57.33
72114;SHT31;59989;46.220;19.888;2023-07-29T07:42:17;28.97;55.02
72114;SHT31;59989;46.220;19.888;2023-07-29T07:45:20;28.90;55.85
72114;SHT31;59989;46.220;19.888;2023-07-29T07:48:22;28.56;54.36
72114;SHT31;59989;46.220;19.888;2023-07-29T07:51:25;28.90;55.40
72114;SHT31;59989;46.220;19.888;2023-07-29T07:54:28;29.14;54.57
72114;SHT31;59989;46.220;19.888;2023-07-29T07:57:30;29.28;54.40
72114;SHT31;59989;46.220;19.888;2023-07-29T08:00:33;29.65;54.06
72114;SHT31;59989;46.220;19.888;2023-07-29T08:03:36;29.70;53.01
72114;SHT31;59989;46.220;19.888;2023-07-29T08:06:38;29.34;52.75
72114;SHT31;59989;46.220;19.888;2023-07-29T08:09:41;29.24;50.24
72114;SHT31;59989;46.220;19.888;2023-07-29T08:12:43;29.55;50.35
72114;SHT31;59989;46.220;19.888;2023-07-29T08:15:47;29.62;50.11
72114;SHT31;59989;46.220;19.888;2023-07-29T08:18:50;29.76;47.75
72114;SHT31;59989;46.220;19.888;2023-07-29T08:21:53;29.76;49.42
72114;SHT31;59989;46.220;19.888;2023-07-29T08:24:55;29.77;48.40
72114;SHT31;59989;46.220;19.888;2023-07-29T08:27:58;29.99;50.63
72114;SHT31;59989;46.220;19.888;2023-07-29T08:31:01;30.32;49.17
72114;SHT31;59989;46.220;19.888;2023-07-29T08:34:04;30.54;48.81
72114;SHT31;59989;46.220;19.888;2023-07-29T08:37:06;30.25;47.83
72114;SHT31;59989;46.220;19.888;2023-07-29T08:40:09;30.17;48.38
72114;SHT31;59989;46.220;19.888;2023-07-29T08:43:14;30.60;47.60
72114;SHT31;59989;46.220;19.888;2023-07-29T08:46:19;30.62;46.22
72114;SHT31;59989;46.220;19.888;2023-07-29T08:49:22;31.06;45.98
72114;SHT31;59989;46.220;19.888;2023-07-29T08:52:26;31.04;45.68
72114;SHT31;59989;46.220;19.888;2023-07-29T08:55:29;31.08;45.38
72114;SHT31;59989;46.220;19.888;2023-07-29T08:58:33;31.26;45.09
72114;SHT31;59989;46.220;19.888;2023-07-29T09:01:37;30.88;44.42
72114;SHT31;59989;46.220;19.888;2023-07-29T09:04:40;30.27;46.60
72114;SHT31;59989;46.220;19.888;2023-07-29T09:07:44;30.92;45.59
72114;SHT31;59989;46.220;19.888;2023-07-29T09:10:47;31.25;43.21
72114;SHT31;59989;46.220;19.888;2023-07-29T09:13:49;31.57;45.29
72114;SHT31;59989;46.220;19.888;2023-07-29T09:16:52;31.61;44.01
72114;SHT31;59989;46.220;19.888;2023-07-29T09:19:55;31.68;45.79
72114;SHT31;59989;46.220;19.888;2023-07-29T09:22:59;32.01;45.17
72114;SHT31;59989;46.220;19.888;2023-07-29T09:26:04;32.12;44.12
72114;SHT31;59989;46.220;19.888;2023-07-29T09:29:07;31.91;44.68
72114;SHT31;59989;46.220;19.888;2023-07-29T09:32:20;31.08;45.51
72114;SHT31;59989;46.220;19.888;2023-07-29T09:35:26;30.64;47.48
72114;SHT31;59989;46.220;19.888;2023-07-29T09:38:29;30.27;48.17
72114;SHT31;59989;46.220;19.888;2023-07-29T09:41:32;31.06;47.64
72114;SHT31;59989;46.220;19.888;2023-07-29T09:44:37;31.81;45.14
72114;SHT31;59989;46.220;19.888;2023-07-29T09:47:40;31.34;44.34
72114;SHT31;59989;46.220;19.888;2023-07-29T09:50:47;31.78;45.07
72114;SHT31;59989;46.220;19.888;2023-07-29T09:53:51;31.68;45.43
72114;SHT31;59989;46.220;19.888;2023-07-29T09:56:54;33.14;43.49
72114;SHT31;59989;46.220;19.888;2023-07-29T09:59:57;33.24;42.89
72114;SHT31;59989;46.220;19.888;2023-07-29T10:03:00;31.82;44.93
72114;SHT31;59989;46.220;19.888;2023-07-29T10:06:05;32.14;42.99
72114;SHT31;59989;46.220;19.888;2023-07-29T10:09:07;31.46;46.30
72114;SHT31;59989;46.220;19.888;2023-07-29T10:12:11;32.25;45.75
72114;SHT31;59989;46.220;19.888;2023-07-29T10:15:14;33.20;43.94
72114;SHT31;59989;46.220;19.888;2023-07-29T10:18:16;33.66;41.07
72114;SHT31;59989;46.220;19.888;2023-07-29T10:21:21;34.09;42.18
72114;SHT31;59989;46.220;19.888;2023-07-29T10:24:32;32.72;43.35
72114;SHT31;59989;46.220;19.888;2023-07-29T10:30:44;32.55;41.85
72114;SHT31;59989;46.220;19.888;2023-07-29T10:33:48;31.91;42.64
72114;SHT31;59989;46.220;19.888;2023-07-29T10:36:51;31.73;43.38
72114;SHT31;59989;46.220;19.888;2023-07-29T10:39:55;34.03;41.81
72114;SHT31;59989;46.220;19.888;2023-07-29T10:43:03;34.47;38.92
72114;SHT31;59989;46.220;19.888;2023-07-29T10:46:21;34.47;39.35
72114;SHT31;59989;46.220;19.888;2023-07-29T10:49:24;35.08;38.05
72114;SHT31;59989;46.220;19.888;2023-07-29T10:52:29;35.47;37.60
72114;SHT31;59989;46.220;19.888;2023-07-29T10:55:34;35.42;37.13
72114;SHT31;59989;46.220;19.888;2023-07-29T10:58:42;35.81;36.57
72114;SHT31;59989;46.220;19.888;2023-07-29T11:01:56;36.42;36.37
72114;SHT31;59989;46.220;19.888;2023-07-29T11:04:59;35.28;36.19
72114;SHT31;59989;46.220;19.888;2023-07-29T11:08:29;35.03;37.40
72114;SHT31;59989;46.220;19.888;2023-07-29T11:11:32;35.90;36.67
72114;SHT31;59989;46.220;19.888;2023-07-29T11:14:35;35.91;35.02
72114;SHT31;59989;46.220;19.888;2023-07-29T11:20:48;36.39;34.10
72114;SHT31;59989;46.220;19.888;2023-07-29T11:23:53;33.70;37.74
72114;SHT31;59989;46.220;19.888;2023-07-29T11:26:55;34.43;37.81
72114;SHT31;59989;46.220;19.888;2023-07-29T11:30:02;33.00;38.90
72114;SHT31;59989;46.220;19.888;2023-07-29T11:33:07;35.47;36.14
72114;SHT31;59989;46.220;19.888;2023-07-29T11:36:19;36.44;35.00
72114;SHT31;59989;46.220;19.888;2023-07-29T11:39:22;34.68;37.04
72114;SHT31;59989;46.220;19.888;2023-07-29T11:42:24;34.81;37.61
72114;SHT31;59989;46.220;19.888;2023-07-29T11:45:28;36.21;36.12
72114;SHT31;59989;46.220;19.888;2023-07-29T11:48:47;36.32;35.28
72114;SHT31;59989;46.220;19.888;2023-07-29T11:51:50;38.15;33.55
72114;SHT31;59989;46.220;19.888;2023-07-29T11:54:53;36.23;35.25
72114;SHT31;59989;46.220;19.888;2023-07-29T11:57:56;37.33;34.06
72114;SHT31;59989;46.220;19.888;2023-07-29T12:00:59;35.61;35.78
72114;SHT31;59989;46.220;19.888;2023-07-29T12:04:02;34.51;36.97
72114;SHT31;59989;46.220;19.888;2023-07-29T12:07:06;35.30;36.75
72114;SHT31;59989;46.220;19.888;2023-07-29T12:10:09;35.45;36.00
72114;SHT31;59989;46.220;19.888;2023-07-29T12:13:13;36.90;34.19
72114;SHT31;59989;46.220;19.888;2023-07-29T12:16:17;38.53;33.35
72114;SHT31;59989;46.220;19.888;2023-07-29T12:19:22;38.54;31.71
72114;SHT31;59989;46.220;19.888;2023-07-29T12:22:24;38.36;32.94
72114;SHT31;59989;46.220;19.888;2023-07-29T12:25:28;36.97;34.59
72114;SHT31;59989;46.220;19.888;2023-07-29T12:28:30;34.37;36.54
72114;SHT31;59989;46.220;19.888;2023-07-29T12:31:37;35.53;35.05
72114;SHT31;59989;46.220;19.888;2023-07-29T12:34:39;37.41;33.80
72114;SHT31;59989;46.220;19.888;2023-07-29T12:37:42;35.38;35.88
72114;SHT31;59989;46.220;19.888;2023-07-29T12:40:45;33.93;37.53
72114;SHT31;59989;46.220;19.888;2023-07-29T12:43:47;35.59;36.49
72114;SHT31;59989;46.220;19.888;2023-07-29T12:46:50;37.21;34.70
72114;SHT31;59989;46.220;19.888;2023-07-29T12:49:53;39.11;31.55
72114;SHT31;59989;46.220;19.888;2023-07-29T12:52:56;35.33;35.36
72114;SHT31;59989;46.220;19.888;2023-07-29T12:55:58;34.30;37.88
72114;SHT31;59989;46.220;19.888;2023-07-29T12:59:04;33.10;39.35
72114;SHT31;59989;46.220;19.888;2023-07-29T13:02:08;35.60;36.79
72114;SHT31;59989;46.220;19.888;2023-07-29T13:05:11;37.61;33.61
72114;SHT31;59989;46.220;19.888;2023-07-29T13:08:14;36.34;35.90
72114;SHT31;59989;46.220;19.888;2023-07-29T13:11:17;37.47;33.42
72114;SHT31;59989;46.220;19.888;2023-07-29T13:14:19;37.78;32.96
72114;SHT31;59989;46.220;19.888;2023-07-29T13:17:22;35.94;35.27
72114;SHT31;59989;46.220;19.888;2023-07-29T13:20:25;38.08;32.64
72114;SHT31;59989;46.220;19.888;2023-07-29T13:23:27;38.81;32.63
72114;SHT31;59989;46.220;19.888;2023-07-29T13:26:31;39.58;29.97
72114;SHT31;59989;46.220;19.888;2023-07-29T13:29:34;40.18;30.06
72114;SHT31;59989;46.220;19.888;2023-07-29T13:32:36;39.22;30.01
72114;SHT31;59989;46.220;19.888;2023-07-29T13:35:39;40.68;29.22
72114;SHT31;59989;46.220;19.888;2023-07-29T13:38:42;42.73;26.30
72114;SHT31;59989;46.220;19.888;2023-07-29T13:41:44;41.87;27.71
72114;SHT31;59989;46.220;19.888;2023-07-29T13:44:47;43.88;24.77
72114;SHT31;59989;46.220;19.888;2023-07-29T13:47:50;43.13;26.68
72114;SHT31;59989;46.220;19.888;2023-07-29T13:50:52;40.00;29.28
72114;SHT31;59989;46.220;19.888;2023-07-29T13:53:55;38.18;31.63
72114;SHT31;59989;46.220;19.888;2023-07-29T13:56:58;39.58;30.00
72114;SHT31;59989;46.220;19.888;2023-07-29T14:00:01;40.62;28.41
72114;SHT31;59989;46.220;19.888;2023-07-29T14:03:12;38.93;29.70
72114;SHT31;59989;46.220;19.888;2023-07-29T14:06:14;40.55;27.43
72114;SHT31;59989;46.220;19.888;2023-07-29T14:09:17;40.10;28.42
72114;SHT31;59989;46.220;19.888;2023-07-29T14:12:20;42.97;25.75
72114;SHT31;59989;46.220;19.888;2023-07-29T14:15:22;42.96;25.53
72114;SHT31;59989;46.220;19.888;2023-07-29T14:18:25;44.00;25.32
72114;SHT31;59989;46.220;19.888;2023-07-29T14:21:27;42.15;27.10
72114;SHT31;59989;46.220;19.888;2023-07-29T14:24:30;43.62;25.42
72114;SHT31;59989;46.220;19.888;2023-07-29T14:27:32;45.91;23.23
72114;SHT31;59989;46.220;19.888;2023-07-29T14:30:35;42.27;25.79
72114;SHT31;59989;46.220;19.888;2023-07-29T14:33:38;44.99;24.33
72114;SHT31;59989;46.220;19.888;2023-07-29T14:36:40;43.27;25.35
72114;SHT31;59989;46.220;19.888;2023-07-29T14:39:43;45.08;24.76
72114;SHT31;59989;46.220;19.888;2023-07-29T14:42:45;41.80;26.46
72114;SHT31;59989;46.220;19.888;2023-07-29T14:45:48;43.96;24.52
72114;SHT31;59989;46.220;19.888;2023-07-29T14:48:51;43.54;25.49
72114;SHT31;59989;46.220;19.888;2023-07-29T14:51:54;41.22;26.78
72114;SHT31;59989;46.220;19.888;2023-07-29T14:54:57;43.42;25.34
72114;SHT31;59989;46.220;19.888;2023-07-29T14:58:00;44.06;24.76
72114;SHT31;59989;46.220;19.888;2023-07-29T15:01:02;43.55;24.67
72114;SHT31;59989;46.220;19.888;2023-07-29T15:04:05;43.89;23.26
72114;SHT31;59989;46.220;19.888;2023-07-29T15:07:07;43.99;23.31
72114;SHT31;59989;46.220;19.888;2023-07-29T15:10:10;43.61;24.32
72114;SHT31;59989;46.220;19.888;2023-07-29T15:13:12;44.47;23.97
72114;SHT31;59989;46.220;19.888;2023-07-29T15:16:15;43.97;25.14
72114;SHT31;59989;46.220;19.888;2023-07-29T15:19:17;43.55;24.72
72114;SHT31;59989;46.220;19.888;2023-07-29T15:22:20;42.66;25.55
72114;SHT31;59989;46.220;19.888;2023-07-29T15:25:23;41.58;26.11
72114;SHT31;59989;46.220;19.888;2023-07-29T15:28:25;43.38;23.78
72114;SHT31;59989;46.220;19.888;2023-07-29T15:31:28;41.95;25.74
72114;SHT31;59989;46.220;19.888;2023-07-29T15:34:30;40.47;27.58
72114;SHT31;59989;46.220;19.888;2023-07-29T15:37:34;40.48;27.98
72114;SHT31;59989;46.220;19.888;2023-07-29T15:40:37;42.94;26.41
72114;SHT31;59989;46.220;19.888;2023-07-29T15:43:40;42.31;26.05
72114;SHT31;59989;46.220;19.888;2023-07-29T15:46:42;43.64;24.87
72114;SHT31;59989;46.220;19.888;2023-07-29T15:49:45;42.79;25.19
72114;SHT31;59989;46.220;19.888;2023-07-29T15:52:48;43.14;25.84
72114;SHT31;59989;46.220;19.888;2023-07-29T15:55:50;42.87;25.48
72114;SHT31;59989;46.220;19.888;2023-07-29T15:58:53;39.48;28.80
72114;SHT31;59989;46.220;19.888;2023-07-29T16:01:56;40.81;28.08
72114;SHT31;59989;46.220;19.888;2023-07-29T16:04:58;39.83;29.17
72114;SHT31;59989;46.220;19.888;2023-07-29T16:08:01;37.21;32.04
72114;SHT31;59989;46.220;19.888;2023-07-29T16:11:03;36.11;33.11
72114;SHT31;59989;46.220;19.888;2023-07-29T16:14:06;34.90;35.27
72114;SHT31;59989;46.220;19.888;2023-07-29T16:17:08;33.79;36.88
72114;SHT31;59989;46.220;19.888;2023-07-29T16:20:11;33.03;37.82
72114;SHT31;59989;46.220;19.888;2023-07-29T16:23:14;32.88;39.00
72114;SHT31;59989;46.220;19.888;2023-07-29T16:26:16;32.32;39.41
72114;SHT31;59989;46.220;19.888;2023-07-29T16:29:19;32.48;39.92
72114;SHT31;59989;46.220;19.888;2023-07-29T16:32:21;32.16;40.47
72114;SHT31;59989;46.220;19.888;2023-07-29T16:35:24;32.11;40.96
72114;SHT31;59989;46.220;19.888;2023-07-29T16:38:26;32.33;40.14
72114;SHT31;59989;46.220;19.888;2023-07-29T16:41:29;33.30;38.81
72114;SHT31;59989;46.220;19.888;2023-07-29T16:44:51;34.07;37.93
72114;SHT31;59989;46.220;19.888;2023-07-29T16:47:54;33.62;38.32
72114;SHT31;59989;46.220;19.888;2023-07-29T16:50:57;32.59;39.95
72114;SHT31;59989;46.220;19.888;2023-07-29T16:53:59;32.74;39.92
72114;SHT31;59989;46.220;19.888;2023-07-29T16:57:02;32.21;41.43
72114;SHT31;59989;46.220;19.888;2023-07-29T17:00:05;31.50;41.93
72114;SHT31;59989;46.220;19.888;2023-07-29T17:03:07;30.67;43.50
72114;SHT31;59989;46.220;19.888;2023-07-29T17:06:10;30.44;43.75
72114;SHT31;59989;46.220;19.888;2023-07-29T17:09:12;30.14;44.25
72114;SHT31;59989;46.220;19.888;2023-07-29T17:12:15;29.99;44.78
72114;SHT31;59989;46.220;19.888;2023-07-29T17:15:18;29.82;45.70
72114;SHT31;59989;46.220;19.888;2023-07-29T17:18:20;29.59;45.49
72114;SHT31;59989;46.220;19.888;2023-07-29T17:21:22;29.42;46.43
72114;SHT31;59989;46.220;19.888;2023-07-29T17:24:27;29.29;47.58
72114;SHT31;59989;46.220;19.888;2023-07-29T17:27:30;29.15;48.02
72114;SHT31;59989;46.220;19.888;2023-07-29T17:30:32;28.87;48.14
72114;SHT31;59989;46.220;19.888;2023-07-29T17:33:37;28.67;48.32
72114;SHT31;59989;46.220;19.888;2023-07-29T17:36:40;28.52;48.60
72114;SHT31;59989;46.220;19.888;2023-07-29T17:39:43;28.38;48.97
72114;SHT31;59989;46.220;19.888;2023-07-29T17:42:45;28.25;49.45
72114;SHT31;59989;46.220;19.888;2023-07-29T17:45:48;28.13;49.58
72114;SHT31;59989;46.220;19.888;2023-07-29T17:48:50;28.04;50.03
72114;SHT31;59989;46.220;19.888;2023-07-29T17:51:53;27.92;50.61
72114;SHT31;59989;46.220;19.888;2023-07-29T17:54:55;27.80;50.98
72114;SHT31;59989;46.220;19.888;2023-07-29T17:57:58;27.64;51.57
72114;SHT31;59989;46.220;19.888;2023-07-29T18:01:02;27.54;51.88
72114;SHT31;59989;46.220;19.888;2023-07-29T18:04:05;27.40;52.62
72114;SHT31;59989;46.220;19.888;2023-07-29T18:07:08;27.23;52.74
72114;SHT31;59989;46.220;19.888;2023-07-29T18:10:11;27.14;52.96
72114;SHT31;59989;46.220;19.888;2023-07-29T18:13:13;27.03;53.86
72114;SHT31;59989;46.220;19.888;2023-07-29T18:16:16;26.88;53.92
72114;SHT31;59989;46.220;19.888;2023-07-29T18:19:22;26.75;54.39
72114;SHT31;59989;46.220;19.888;2023-07-29T18:22:26;26.62;54.58
72114;SHT31;59989;46.220;19.888;2023-07-29T18:25:29;26.45;55.23
72114;SHT31;59989;46.220;19.888;2023-07-29T18:28:31;26.31;55.72
72114;SHT31;59989;46.220;19.888;2023-07-29T18:31:34;26.17;56.17
72114;SHT31;59989;46.220;19.888;2023-07-29T18:34:37;26.01;57.32
72114;SHT31;59989;46.220;19.888;2023-07-29T18:37:39;25.87;57.71
72114;SHT31;59989;46.220;19.888;2023-07-29T18:40:42;25.78;57.41
72114;SHT31;59989;46.220;19.888;2023-07-29T18:43:46;25.66;57.80
72114;SHT31;59989;46.220;19.888;2023-07-29T18:46:48;25.61;57.63
72114;SHT31;59989;46.220;19.888;2023-07-29T18:49:55;25.51;59.07
72114;SHT31;59989;46.220;19.888;2023-07-29T18:52:58;25.45;58.77
72114;SHT31;59989;46.220;19.888;2023-07-29T18:56:01;25.39;58.86
72114;SHT31;59989;46.220;19.888;2023-07-29T18:59:03;25.34;59.31
72114;SHT31;59989;46.220;19.888;2023-07-29T19:02:06;25.25;59.48
72114;SHT31;59989;46.220;19.888;2023-07-29T19:05:09;25.17;60.14
72114;SHT31;59989;46.220;19.888;2023-07-29T19:08:13;25.08;61.30
72114;SHT31;59989;46.220;19.888;2023-07-29T19:11:15;25.01;59.95